Twr-7 — TWR-7 — position and weather

sailwx.info

Track history (hours):
 
Tides and Currents Weather Stations Pressure Air Temp Water Temp Dewpoint Dewpoint Depression Visibility Wind Speed Wind Dir Waves Ship Positions

Twr-7

Last reported at 2017-Jun-19 18:01 UTC. Time now 2017-Jun-26 21:00 UTC.
Position N 47°54' W 122°37'.

; draft 1.5 m.

Type: Military. MMSI: 369970258.

Date/timePositionNaut miles runAvg speedWind from/ knotsBaromVisibWave heightAir tempDewpointWater temp
2017-Jun-19 18:01N 47°54' W 122°37'213.6
2017-Jun-19 17:51N 47°57' W 122°38'412.5
2017-Jun-19 17:31N 47°55' W 122°32'816.0
2017-Jun-19 17:01N 47°48' W 122°28'612.0
2017-Jun-19 16:30N 47°43' W 122°34'2 0.1
2017-Jun-18 23:03N 47°41' W 122°36'112.1
2017-Jun-18 23:00N 47°41' W 122°35'611.9
2017-Jun-18 22:31N 47°45' W 122°28'816.6
2017-Jun-18 22:00N 47°53' W 122°29'2115.4
2017-Jun-18 20:37N 48°10' W 122°48'1316.7
2017-Jun-18 19:51N 48°20' W 122°60'617.3
2017-Jun-18 19:30N 48°25' W 123°05'917.6
2017-Jun-18 19:00N 48°32' W 123°13'917.9
2017-Jun-18 18:31N 48°41' W 123°16'816.3
2017-Jun-18 18:00N 48°49' W 123°21'916.8
2017-Jun-18 17:29N 48°55' W 123°30'  
Track history (hours):
 
Tides and Currents Weather Stations Pressure Air Temp Water Temp Dewpoint Dewpoint Depression Visibility Wind Speed Wind Dir Waves Ship Positions

Twr-7

Last reported at 2017-Jun-19 18:01 UTC. Time now 2017-Jun-26 21:00 UTC.
Position N 47°54' W 122°37'.

; draft 1.5 m.

Type: Military. MMSI: 369970258.

Date/timePositionNaut miles runAvg speedWind from/ knotsBaromVisibWave heightAir tempDewpointWater temp
2017-Jun-19 18:01N 47°54' W 122°37'213.6
2017-Jun-19 17:51N 47°57' W 122°38'412.5
2017-Jun-19 17:31N 47°55' W 122°32'816.0
2017-Jun-19 17:01N 47°48' W 122°28'612.0
2017-Jun-19 16:30N 47°43' W 122°34'2 0.1
2017-Jun-18 23:03N 47°41' W 122°36'112.1
2017-Jun-18 23:00N 47°41' W 122°35'611.9
2017-Jun-18 22:31N 47°45' W 122°28'816.6
2017-Jun-18 22:00N 47°53' W 122°29'2115.4
2017-Jun-18 20:37N 48°10' W 122°48'1316.7
2017-Jun-18 19:51N 48°20' W 122°60'617.3
2017-Jun-18 19:30N 48°25' W 123°05'917.6
2017-Jun-18 19:00N 48°32' W 123°13'917.9
2017-Jun-18 18:31N 48°41' W 123°16'816.3
2017-Jun-18 18:00N 48°49' W 123°21'916.8
2017-Jun-18 17:29N 48°55' W 123°30'  

Dump ship's entire track history